Time;durP1;ratioP1;P1;durP2;ratioP2;P2;SDS_P1;SDS_P2;PMS_P1;PMS_P2;Temp;Humidity;BMP_temperature;BMP_pressure;BME280_temperature;BME280_humidity;BME280_pressure;Samples;Min_cycle;Max_cycle;Signal;HPM_P1;HPM_P2
2022/11/28 00:00:34;;;;;;;;;;;;;;;4.66;100.00;101078.91;2094764;28;33857;-75
2022/11/28 00:01:40;;;;;;;;;;;;;;;4.65;100.00;101074.47;2094797;28;34001;-75
2022/11/28 00:02:41;;;;;;;;;;;;;;;4.64;100.00;101076.25;2095391;28;28912;-75
2022/11/28 00:03:43;;;;;;;;;;;;;;;4.64;100.00;101070.06;2094072;28;38464;-75
2022/11/28 00:04:45;;;;;;;;;;;;;;;4.64;100.00;101072.72;2095234;28;30976;-75
2022/11/28 00:05:46;;;;;;;;;;;;;;;4.63;100.00;101069.19;2095460;28;19933;-75
2022/11/28 00:06:49;;;;;;;;;;;;;;;4.63;100.00;101062.97;2095115;28;34711;-75
2022/11/28 00:07:50;;;;;;;;;;;;;;;4.64;100.00;101059.47;2094903;28;34723;-75
2022/11/28 00:08:56;;;;;;;;;;;;;;;4.63;100.00;101055.03;2089960;28;23878;-76
2022/11/28 00:09:57;;;;;;;;;;;;;;;4.63;100.00;101053.28;2089283;28;40661;-75
2022/11/28 00:11:07;;;;;;;;;;;;;;;4.62;100.00;101048.84;2089532;28;28760;-75
2022/11/28 00:12:09;;;;;;;;;;;;;;;4.62;100.00;101048.84;2089676;28;37761;-75
2022/11/28 00:13:10;;;;;;;;;;;;;;;4.62;100.00;101045.31;2091409;28;32593;-75
2022/11/28 00:14:13;;;;;;;;;;;;;;;4.61;100.00;101052.34;2089554;28;19925;-75
2022/11/28 00:15:15;;;;;;;;;;;;;;;4.61;100.00;101055.00;2080593;28;34198;-75
2022/11/28 00:16:22;;;;;;;;;;;;;;;4.60;100.00;101053.25;2072068;28;31394;-75
2022/11/28 00:17:23;;;;;;;;;;;;;;;4.58;100.00;101055.91;2074953;28;37604;-75
2022/11/28 00:18:25;;;;;;;;;;;;;;;4.59;100.00;101055.03;2081164;28;36122;-75
2022/11/28 00:19:27;;;;;;;;;;;;;;;4.58;100.00;101058.56;2081373;28;31252;-75
2022/11/28 00:20:30;;;;;;;;;;;;;;;4.57;100.00;101059.41;2081089;28;39874;-75
2022/11/28 00:21:32;;;;;;;;;;;;;;;4.55;100.00;101045.28;2081459;28;34698;-76
2022/11/28 00:22:34;;;;;;;;;;;;;;;4.56;100.00;101046.19;2080519;28;32084;-75
2022/11/28 00:23:36;;;;;;;;;;;;;;;4.55;100.00;101041.75;2081536;28;30928;-75
2022/11/28 00:24:38;;;;;;;;;;;;;;;4.55;100.00;101052.34;2080951;28;34771;-75
2022/11/28 00:25:40;;;;;;;;;;;;;;;4.54;100.00;101047.91;2081407;28;37999;-75
2022/11/28 00:26:42;;;;;;;;;;;;;;;4.52;100.00;101047.94;2081556;28;34005;-76
2022/11/28 00:27:43;;;;;;;;;;;;;;;4.52;100.00;101052.34;2072791;28;19926;-76
2022/11/28 00:28:46;;;;;;;;;;;;;;;4.51;100.00;101046.16;2072987;28;20730;-75
2022/11/28 00:29:48;;;;;;;;;;;;;;;4.53;100.00;101043.50;2075590;28;25081;-75
2022/11/28 00:30:49;;;;;;;;;;;;;;;4.53;100.00;101043.50;2072304;28;24641;-75
2022/11/28 00:31:51;;;;;;;;;;;;;;;4.52;100.00;101039.97;2081285;28;38630;-75
2022/11/28 00:32:52;;;;;;;;;;;;;;;4.51;100.00;101035.53;2080331;28;39268;-75
2022/11/28 00:33:54;;;;;;;;;;;;;;;4.51;100.00;101035.53;2080927;28;35759;-76
2022/11/28 00:34:59;;;;;;;;;;;;;;;4.50;100.00;101031.09;2081016;28;31253;-75
2022/11/28 00:36:03;;;;;;;;;;;;;;;4.51;100.00;101034.66;2081803;28;19925;-75
2022/11/28 00:37:04;;;;;;;;;;;;;;;4.51;100.00;101029.38;2080369;28;34141;-74
2022/11/28 00:38:06;;;;;;;;;;;;;;;4.51;100.00;101029.38;2081328;28;32066;-74
2022/11/28 00:39:07;;;;;;;;;;;;;;;4.51;100.00;101024.94;2081108;28;20057;-75
2022/11/28 00:40:09;;;;;;;;;;;;;;;4.51;100.00;101027.59;2072619;28;19981;-75
2022/11/28 00:41:20;;;;;;;;;;;;;;;4.51;100.00;101029.38;2072271;28;33133;-75
2022/11/28 00:42:22;;;;;;;;;;;;;;;4.52;100.00;101024.06;2081469;28;31072;-75
2022/11/28 00:43:23;;;;;;;;;;;;;;;4.52;100.00;101016.13;2082810;28;39420;-75
2022/11/28 00:44:25;;;;;;;;;;;;;;;4.51;100.00;101016.13;2081463;28;33031;-75
2022/11/28 00:45:26;;;;;;;;;;;;;;;4.53;100.00;101017.88;2080977;28;32034;-75
2022/11/28 00:46:28;;;;;;;;;;;;;;;4.53;100.00;101017.00;2080728;28;40235;-76
2022/11/28 00:47:30;;;;;;;;;;;;;;;4.51;100.00;101014.34;2080885;28;28379;-75
2022/11/28 00:48:35;;;;;;;;;;;;;;;4.53;100.00;101009.91;2081477;28;39997;-76
2022/11/28 00:49:37;;;;;;;;;;;;;;;4.53;100.00;101001.97;2081170;28;28787;-75
2022/11/28 00:50:38;;;;;;;;;;;;;;;4.53;100.00;100999.31;2081224;28;29242;-75
2022/11/28 00:51:42;;;;;;;;;;;;;;;4.53;100.00;100996.66;2080510;28;38913;-75
2022/11/28 00:52:44;;;;;;;;;;;;;;;4.53;100.00;100996.66;2081543;28;19932;-76
2022/11/28 00:53:48;;;;;;;;;;;;;;;4.54;100.00;100998.44;2080826;28;34614;-75
2022/11/28 00:54:49;;;;;;;;;;;;;;;4.54;100.00;100998.44;2080954;28;38022;-75
2022/11/28 00:55:51;;;;;;;;;;;;;;;4.55;100.00;100986.94;2081102;28;28746;-76
2022/11/28 00:56:54;;;;;;;;;;;;;;;4.55;100.00;100999.31;2081354;28;20064;-75
2022/11/28 00:57:56;;;;;;;;;;;;;;;4.56;100.00;100990.50;2081527;28;19925;-75
2022/11/28 00:59:00;;;;;;;;;;;;;;;4.55;100.00;100989.59;2080486;28;39774;-76
2022/11/28 01:00:03;;;;;;;;;;;;;;;4.56;100.00;100985.19;2080530;28;37592;-76
2022/11/28 01:01:12;;;;;;;;;;;;;;;4.57;100.00;100986.94;2081221;28;34973;-75
2022/11/28 01:02:13;;;;;;;;;;;;;;;4.55;100.00;100981.63;2080721;28;34096;-76
2022/11/28 01:03:17;;;;;;;;;;;;;;;4.56;100.00;100972.81;2081603;28;20123;-76
2022/11/28 01:04:19;;;;;;;;;;;;;;;4.56;100.00;100975.47;2080534;28;36676;-76
2022/11/28 01:05:21;;;;;;;;;;;;;;;4.57;100.00;100977.22;2081299;28;29968;-76
2022/11/28 01:06:29;;;;;;;;;;;;;;;4.56;100.00;100971.94;2080760;28;34343;-76
2022/11/28 01:07:33;;;;;;;;;;;;;;;4.57;100.00;100963.97;2081669;28;19922;-76
2022/11/28 01:08:35;;;;;;;;;;;;;;;4.57;100.00;100966.63;2080629;28;26824;-76
2022/11/28 01:09:39;;;;;;;;;;;;;;;4.58;100.00;100968.41;2080361;28;36027;-75
2022/11/28 01:10:43;;;;;;;;;;;;;;;4.58;100.00;100965.75;2080580;28;37742;-75
2022/11/28 01:11:48;;;;;;;;;;;;;;;4.58;100.00;100963.09;2081908;28;19992;-75
2022/11/28 01:12:49;;;;;;;;;;;;;;;4.57;100.00;100969.25;2080002;28;39379;-75
2022/11/28 01:13:54;;;;;;;;;;;;;;;4.58;100.00;100963.09;2083601;28;31135;-76
2022/11/28 01:14:57;;;;;;;;;;;;;;;4.60;100.00;100965.75;2081442;28;20853;-76
2022/11/28 01:15:58;;;;;;;;;;;;;;;4.59;100.00;100958.66;2080730;28;34272;-76
2022/11/28 01:17:00;;;;;;;;;;;;;;;4.63;100.00;100959.56;2080557;28;39613;-76
2022/11/28 01:18:02;;;;;;;;;;;;;;;4.62;100.00;100963.97;2081078;28;37049;-76
2022/11/28 01:19:04;;;;;;;;;;;;;;;4.63;100.00;100970.16;2072293;28;19926;-76
2022/11/28 01:20:07;;;;;;;;;;;;;;;4.65;100.00;100968.41;2072460;28;19981;-76
2022/11/28 01:21:09;;;;;;;;;;;;;;;4.63;100.00;100967.50;2079960;28;33456;-76
2022/11/28 01:22:15;;;;;;;;;;;;;;;4.63;100.00;100962.22;2080330;28;36722;-75
2022/11/28 01:23:18;;;;;;;;;;;;;;;4.63;100.00;100964.84;2080136;28;35835;-76
2022/11/28 01:24:19;;;;;;;;;;;;;;;4.64;100.00;100961.34;2080993;28;35446;-75
2022/11/28 01:25:21;;;;;;;;;;;;;;;4.63;100.00;100965.75;2080707;28;34405;-76
2022/11/28 01:26:26;;;;;;;;;;;;;;;4.63;100.00;100964.84;2080779;28;33379;-76
2022/11/28 01:27:30;;;;;;;;;;;;;;;4.64;100.00;100961.34;2080692;28;32879;-76
2022/11/28 01:28:33;;;;;;;;;;;;;;;4.64;100.00;100958.69;2080816;28;35645;-76
2022/11/28 01:29:34;;;;;;;;;;;;;;;4.65;100.00;100968.41;2080633;28;39948;-76
2022/11/28 01:30:36;;;;;;;;;;;;;;;4.66;100.00;100962.22;2081750;28;19925;-75
2022/11/28 01:31:37;;;;;;;;;;;;;;;4.66;100.00;100951.63;2080594;28;27482;-76
2022/11/28 01:32:39;;;;;;;;;;;;;;;4.67;100.00;100956.06;2080500;28;29372;-76
2022/11/28 01:33:41;;;;;;;;;;;;;;;4.67;100.00;100950.75;2081035;28;35932;-76
2022/11/28 01:34:43;;;;;;;;;;;;;;;4.67;100.00;100946.31;2080608;28;39081;-76
2022/11/28 01:35:56;;;;;;;;;;;;;;;4.68;100.00;100952.50;2081279;28;20901;-76
2022/11/28 01:36:58;;;;;;;;;;;;;;;4.69;100.00;100954.28;2081044;28;30798;-75
2022/11/28 01:38:00;;;;;;;;;;;;;;;4.69;100.00;100956.94;2080663;28;19991;-76
2022/11/28 01:39:04;;;;;;;;;;;;;;;4.70;100.00;100950.72;2080354;28;29326;-76
2022/11/28 01:40:09;;;;;;;;;;;;;;;4.70;100.00;100956.94;2080390;28;42262;-76
2022/11/28 01:41:13;;;;;;;;;;;;;;;4.71;100.00;100945.44;2080778;28;19933;-76
2022/11/28 01:42:19;;;;;;;;;;;;;;;4.71;100.00;100945.44;2079498;28;28657;-75
2022/11/28 01:43:23;;;;;;;;;;;;;;;4.71;100.00;100934.81;2080754;28;38911;-76
2022/11/28 01:44:25;;;;;;;;;;;;;;;4.71;100.00;100945.44;2082936;28;27877;-76
2022/11/28 01:45:30;;;;;;;;;;;;;;;4.71;100.00;100940.13;2080629;28;38961;-76
2022/11/28 01:46:32;;;;;;;;;;;;;;;4.75;100.00;100946.31;2081200;28;22136;-76
2022/11/28 01:47:34;;;;;;;;;;;;;;;4.74;100.00;100947.22;2080155;28;33095;-75
2022/11/28 01:48:41;;;;;;;;;;;;;;;4.74;100.00;100941.91;2081427;28;19925;-76
2022/11/28 01:49:47;;;;;;;;;;;;;;;4.74;100.00;100937.47;2080595;28;33069;-76
2022/11/28 01:50:54;;;;;;;;;;;;;;;4.73;100.00;100934.81;2080630;28;24375;-76
2022/11/28 01:52:11;;;;;;;;;;;;;;;4.75;100.00;100938.34;2081507;28;20843;-76
2022/11/28 01:53:13;;;;;;;;;;;;;;;4.74;100.00;100936.59;2080387;28;39012;-75
2022/11/28 01:54:19;;;;;;;;;;;;;;;4.72;100.00;100933.94;2080673;28;32899;-76
2022/11/28 01:55:25;;;;;;;;;;;;;;;4.73;100.00;100929.53;2080198;28;31702;-76
2022/11/28 01:56:42;;;;;;;;;;;;;;;4.73;100.00;100929.53;2080368;28;35136;-75
2022/11/28 01:57:43;;;;;;;;;;;;;;;4.72;100.00;100914.47;2080715;28;32236;-76
2022/11/28 01:58:49;;;;;;;;;;;;;;;4.74;100.00;100918.03;2079146;28;30989;-76
2022/11/28 02:00:18;;;;;;;;;;;;;;;4.75;100.00;100922.44;2081136;28;27973;-76
2022/11/28 02:01:23;;;;;;;;;;;;;;;4.74;100.00;100920.69;2080409;28;34944;-76
2022/11/28 02:02:36;;;;;;;;;;;;;;;4.75;100.00;100923.31;2081143;28;19996;-75
2022/11/28 02:03:44;;;;;;;;;;;;;;;4.76;100.00;100913.63;2080559;28;40359;-76
2022/11/28 02:04:47;;;;;;;;;;;;;;;4.75;100.00;100918.00;2080757;28;29347;-76
2022/11/28 02:05:51;;;;;;;;;;;;;;;4.74;100.00;100913.63;2080433;28;29730;-76
2022/11/28 02:06:53;;;;;;;;;;;;;;;4.76;100.00;100916.28;2080230;28;38025;-76
2022/11/28 02:07:55;;;;;;;;;;;;;;;4.75;100.00;100906.53;2080803;28;36199;-76
2022/11/28 02:08:59;;;;;;;;;;;;;;;4.74;100.00;100900.34;2080277;28;38421;-76
2022/11/28 02:10:05;;;;;;;;;;;;;;;4.74;100.00;100904.78;2080886;28;29408;-76
2022/11/28 02:11:44;;;;;;;;;;;;;;;4.75;100.00;100906.53;2080522;28;32250;-76
2022/11/28 02:13:15;;;;;;;;;;;;;;;4.76;100.00;100911.84;2081060;28;20726;-76
2022/11/28 02:14:17;;;;;;;;;;;;;;;4.76;100.00;100909.19;2080955;28;37955;-77
2022/11/28 02:15:32;;;;;;;;;;;;;;;4.75;100.00;100909.19;2081664;28;41785;-74
2022/11/28 02:17:18;;;;;;;;;;;;;;;4.74;100.00;100907.44;2081661;28;20745;-76
2022/11/28 02:18:31;;;;;;;;;;;;;;;4.72;100.00;100902.13;2079954;28;39011;-76
2022/11/28 02:19:52;;;;;;;;;;;;;;;4.74;100.00;100915.38;2080685;28;33977;-77
2022/11/28 02:20:53;;;;;;;;;;;;;;;4.73;100.00;100908.31;2080445;28;40548;-76
2022/11/28 02:22:25;;;;;;;;;;;;;;;4.72;100.00;100906.53;2080457;28;35515;-76
2022/11/28 02:24:01;;;;;;;;;;;;;;;4.74;100.00;100908.31;2080816;28;35710;-76
2022/11/28 02:25:39;;;;;;;;;;;;;;;4.71;100.00;100908.28;2081102;28;20278;-76
2022/11/28 02:26:59;;;;;;;;;;;;;;;4.70;100.00;100906.53;2081056;28;29645;-76
2022/11/28 02:28:22;;;;;;;;;;;;;;;4.68;100.00;100894.16;2080503;28;31352;-74
2022/11/28 02:29:24;;;;;;;;;;;;;;;4.68;100.00;100894.16;2079576;28;32988;-77
2022/11/28 02:30:44;;;;;;;;;;;;;;;4.68;100.00;100889.72;2080574;28;40637;-77
2022/11/28 02:32:10;;;;;;;;;;;;;;;4.67;100.00;100890.63;2080250;28;30003;-76
2022/11/28 02:33:19;;;;;;;;;;;;;;;4.67;100.00;100889.75;2080191;28;38155;-77
2022/11/28 02:34:44;;;;;;;;;;;;;;;4.66;100.00;100895.94;2080494;28;31614;-76
2022/11/28 02:36:13;;;;;;;;;;;;;;;4.67;100.00;100892.41;2080076;28;42117;-77
2022/11/28 02:37:39;;;;;;;;;;;;;;;4.65;100.00;100889.75;2081202;28;34877;-77
2022/11/28 02:39:11;;;;;;;;;;;;;;;4.65;100.00;100886.19;2079233;28;39340;-75
2022/11/28 02:40:31;;;;;;;;;;;;;;;4.64;100.00;100889.75;2080695;28;20504;-77
2022/11/28 02:41:45;;;;;;;;;;;;;;;4.64;100.00;100884.44;2080545;28;35146;-77
2022/11/28 02:43:02;;;;;;;;;;;;;;;4.64;100.00;100876.47;2081210;28;19934;-77
2022/11/28 02:44:17;;;;;;;;;;;;;;;4.62;100.00;100873.81;2080070;28;38595;-77
2022/11/28 02:45:28;;;;;;;;;;;;;;;4.63;100.00;100869.41;2083379;28;19924;-77
2022/11/28 02:46:38;;;;;;;;;;;;;;;4.64;100.00;100869.41;2080049;28;38783;-76
2022/11/28 02:47:47;;;;;;;;;;;;;;;4.64;100.00;100876.47;2080385;28;31017;-77
2022/11/28 02:48:54;;;;;;;;;;;;;;;4.64;100.00;100882.66;2079828;28;30402;-77
2022/11/28 02:50:08;;;;;;;;;;;;;;;4.63;100.00;100872.97;2080662;28;35815;-77
2022/11/28 02:51:19;;;;;;;;;;;;;;;4.63;100.00;100875.59;2080819;28;31156;-76
2022/11/28 02:52:25;;;;;;;;;;;;;;;4.64;100.00;100881.78;2079493;28;34680;-77
2022/11/28 02:53:30;;;;;;;;;;;;;;;4.64;100.00;100884.44;2081298;28;19921;-77
2022/11/28 02:54:32;;;;;;;;;;;;;;;4.64;100.00;100879.13;2080796;28;19940;-77
2022/11/28 02:55:38;;;;;;;;;;;;;;;4.63;100.00;100880.91;2080496;28;36104;-76
2022/11/28 02:56:50;;;;;;;;;;;;;;;4.64;100.00;100887.97;2080151;28;30150;-76
2022/11/28 02:57:53;;;;;;;;;;;;;;;4.64;100.00;100877.34;2079834;28;29695;-77
2022/11/28 02:58:55;;;;;;;;;;;;;;;4.66;100.00;100874.72;2079158;28;36063;-77
2022/11/28 02:59:56;;;;;;;;;;;;;;;4.65;100.00;100872.94;2081048;28;20797;-76
2022/11/28 03:00:59;;;;;;;;;;;;;;;4.65;100.00;100875.56;2079027;28;38177;-77
2022/11/28 03:02:01;;;;;;;;;;;;;;;4.66;100.00;100880.00;2080684;28;27867;-76
2022/11/28 03:03:31;;;;;;;;;;;;;;;4.65;100.00;100872.94;2079599;28;37966;-77
2022/11/28 03:04:46;;;;;;;;;;;;;;;4.65;100.00;100872.94;2080329;28;41865;-76
2022/11/28 03:06:04;;;;;;;;;;;;;;;4.67;100.00;100868.53;2081009;28;20798;-77
2022/11/28 03:07:23;;;;;;;;;;;;;;;4.66;100.00;100859.66;2080041;28;39470;-77
2022/11/28 03:08:45;;;;;;;;;;;;;;;4.67;100.00;100860.56;2081261;28;20016;-76
2022/11/28 03:10:17;;;;;;;;;;;;;;;4.67;100.00;100869.41;2079769;28;39748;-77
2022/11/28 03:11:40;;;;;;;;;;;;;;;4.69;100.00;100867.63;2079878;28;19967;-77
2022/11/28 03:12:53;;;;;;;;;;;;;;;4.70;100.00;100865.84;2079746;28;41379;-77
2022/11/28 03:14:14;;;;;;;;;;;;;;;4.69;100.00;100865.00;2079881;28;38597;-77
2022/11/28 03:15:22;;;;;;;;;;;;;;;4.70;100.00;100866.78;2079681;28;34331;-77
2022/11/28 03:16:44;;;;;;;;;;;;;;;4.72;100.00;100859.69;2082786;28;32640;-77
2022/11/28 03:18:06;;;;;;;;;;;;;;;4.72;100.00;100864.09;2079739;28;38678;-77
2022/11/28 03:19:08;;;;;;;;;;;;;;;4.72;100.00;100866.75;2072315;28;27333;-77
2022/11/28 03:20:32;;;;;;;;;;;;;;;4.73;100.00;100874.69;2071809;28;32381;-77
2022/11/28 03:22:06;;;;;;;;;;;;;;;4.73;100.00;100863.22;2072004;28;19973;-78
2022/11/28 03:23:16;;;;;;;;;;;;;;;4.75;100.00;100861.44;2071606;28;36779;-76
2022/11/28 03:24:40;;;;;;;;;;;;;;;4.75;100.00;100869.41;2071809;28;42153;-77
2022/11/28 03:25:54;;;;;;;;;;;;;;;4.75;100.00;100874.72;2071973;28;36069;-77
2022/11/28 03:27:13;;;;;;;;;;;;;;;4.74;100.00;100865.00;2071852;28;35550;-77
2022/11/28 03:28:30;;;;;;;;;;;;;;;4.75;100.00;100870.28;2071699;28;38104;-77
2022/11/28 03:29:49;;;;;;;;;;;;;;;4.73;100.00;100865.88;2071920;28;39201;-77
2022/11/28 03:31:09;;;;;;;;;;;;;;;4.75;100.00;100869.41;2071765;28;42083;-76
2022/11/28 03:32:17;;;;;;;;;;;;;;;4.77;100.00;100875.59;2071646;28;36188;-77
2022/11/28 03:33:21;;;;;;;;;;;;;;;4.76;100.00;100873.84;2061941;28;41000;-77
2022/11/28 03:34:30;;;;;;;;;;;;;;;4.75;100.00;100866.75;2063528;28;19930;-75
2022/11/28 03:35:38;;;;;;;;;;;;;;;4.74;100.00;100865.88;2072071;28;40369;-77
2022/11/28 03:36:46;;;;;;;;;;;;;;;4.75;100.00;100869.41;2071468;28;33084;-77
2022/11/28 03:37:53;;;;;;;;;;;;;;;4.75;100.00;100866.75;2072102;28;35332;-77
2022/11/28 03:39:07;;;;;;;;;;;;;;;4.77;100.00;100872.94;2071542;28;34328;-78
2022/11/28 03:40:13;;;;;;;;;;;;;;;4.74;100.00;100863.22;2071936;28;33469;-77
2022/11/28 03:41:24;;;;;;;;;;;;;;;4.74;100.00;100863.22;2071551;28;39698;-77
2022/11/28 03:42:30;;;;;;;;;;;;;;;4.75;100.00;100859.66;2071804;28;30922;-77
2022/11/28 03:43:39;;;;;;;;;;;;;;;4.76;100.00;100863.22;2073107;28;28610;-76
2022/11/28 03:44:48;;;;;;;;;;;;;;;4.77;100.00;100857.00;2072665;28;34876;-76
2022/11/28 03:45:54;;;;;;;;;;;;;;;4.76;100.00;100857.91;2074103;28;19937;-76
2022/11/28 03:46:59;;;;;;;;;;;;;;;4.75;100.00;100858.78;2075490;28;32716;-77
2022/11/28 03:48:07;;;;;;;;;;;;;;;4.76;100.00;100857.91;2074807;28;31865;-76
2022/11/28 03:49:14;;;;;;;;;;;;;;;4.77;100.00;100860.56;2081648;28;29399;-77
2022/11/28 03:50:26;;;;;;;;;;;;;;;4.78;100.00;100853.50;2081462;28;31644;-76
2022/11/28 03:51:46;;;;;;;;;;;;;;;4.80;100.00;100858.81;2081364;28;36369;-77
2022/11/28 03:52:58;;;;;;;;;;;;;;;4.82;100.00;100849.94;2081434;28;35743;-77
2022/11/28 03:54:13;;;;;;;;;;;;;;;4.82;100.00;100857.91;2081819;28;25040;-77
2022/11/28 03:55:35;;;;;;;;;;;;;;;4.83;100.00;100850.81;2081507;28;33178;-76
2022/11/28 03:56:55;;;;;;;;;;;;;;;4.90;100.00;100852.59;2081979;28;39263;-76
2022/11/28 03:58:05;;;;;;;;;;;;;;;4.87;100.00;100853.47;2081643;28;34356;-76
2022/11/28 03:59:18;;;;;;;;;;;;;;;4.90;100.00;100853.50;2080971;28;37673;-76
2022/11/28 04:00:23;;;;;;;;;;;;;;;4.89;100.00;100846.41;2082454;28;19925;-76
2022/11/28 04:01:44;;;;;;;;;;;;;;;4.90;100.00;100848.19;2080471;28;39681;-76
2022/11/28 04:03:10;;;;;;;;;;;;;;;4.90;100.00;100850.84;2082046;28;19981;-76
2022/11/28 04:04:18;;;;;;;;;;;;;;;4.90;100.00;100847.28;2081545;28;35096;-76
2022/11/28 04:05:38;;;;;;;;;;;;;;;4.90;100.00;100852.59;2081642;28;19975;-76
2022/11/28 04:06:55;;;;;;;;;;;;;;;4.89;100.00;100851.72;2081346;28;36123;-75
2022/11/28 04:08:19;;;;;;;;;;;;;;;4.88;100.00;100852.63;2081918;28;19932;-76
2022/11/28 04:09:41;;;;;;;;;;;;;;;4.88;100.00;100857.91;2080596;28;39078;-76
2022/11/28 04:10:53;;;;;;;;;;;;;;;4.88;100.00;100857.00;2081464;28;23199;-76
2022/11/28 04:12:03;;;;;;;;;;;;;;;4.88;100.00;100863.22;2081415;28;20825;-76
2022/11/28 04:13:17;;;;;;;;;;;;;;;4.91;100.00;100862.31;2081495;28;28319;-76
2022/11/28 04:14:41;;;;;;;;;;;;;;;4.89;100.00;100858.78;2081609;28;19936;-76
2022/11/28 04:15:58;;;;;;;;;;;;;;;4.90;100.00;100858.78;2081512;28;32460;-76
2022/11/28 04:17:04;;;;;;;;;;;;;;;4.89;100.00;100857.00;2083696;28;38057;-76
2022/11/28 04:18:27;;;;;;;;;;;;;;;4.91;100.00;100852.59;2080572;28;34292;-76
2022/11/28 04:19:49;;;;;;;;;;;;;;;4.93;100.00;100853.47;2081399;28;36707;-76
2022/11/28 04:21:02;;;;;;;;;;;;;;;4.94;100.00;100843.75;2081179;28;33527;-76
2022/11/28 04:22:06;;;;;;;;;;;;;;;4.94;100.00;100844.63;2081037;28;30490;-76
2022/11/28 04:23:13;;;;;;;;;;;;;;;4.94;100.00;100846.41;2081742;28;19999;-76
2022/11/28 04:24:25;;;;;;;;;;;;;;;4.94;100.00;100849.06;2080927;28;35948;-76
2022/11/28 04:25:31;;;;;;;;;;;;;;;4.94;100.00;100849.94;2081499;28;39332;-76
2022/11/28 04:26:36;;;;;;;;;;;;;;;4.93;100.00;100848.16;2080951;28;39475;-76
2022/11/28 04:27:40;;;;;;;;;;;;;;;4.93;100.00;100842.84;2081351;28;32132;-75
2022/11/28 04:28:44;;;;;;;;;;;;;;;4.95;100.00;100854.38;2080259;28;39434;-76
2022/11/28 04:29:55;;;;;;;;;;;;;;;4.96;100.00;100848.16;2080760;28;39657;-76
2022/11/28 04:31:01;;;;;;;;;;;;;;;4.96;100.00;100853.47;2081245;28;37636;-75
2022/11/28 04:32:04;;;;;;;;;;;;;;;4.96;100.00;100849.94;2081245;28;37495;-76
2022/11/28 04:33:10;;;;;;;;;;;;;;;4.95;100.00;100846.41;2080936;28;30265;-75
2022/11/28 04:34:17;;;;;;;;;;;;;;;4.96;100.00;100848.16;2082232;28;19929;-76
2022/11/28 04:35:39;;;;;;;;;;;;;;;4.96;100.00;100847.28;2080887;28;40184;-75
2022/11/28 04:36:44;;;;;;;;;;;;;;;4.97;100.00;100843.72;2081769;28;19929;-75
2022/11/28 04:37:48;;;;;;;;;;;;;;;4.96;100.00;100842.84;2081155;28;31560;-75
2022/11/28 04:38:55;;;;;;;;;;;;;;;4.97;100.00;100841.06;2080665;28;33944;-76
2022/11/28 04:39:59;;;;;;;;;;;;;;;4.98;100.00;100842.84;2081582;28;30260;-75
2022/11/28 04:41:13;;;;;;;;;;;;;;;4.98;100.00;100846.38;2080501;28;35965;-76
2022/11/28 04:42:23;;;;;;;;;;;;;;;5.00;100.00;100837.56;2081497;28;21641;-76
2022/11/28 04:43:32;;;;;;;;;;;;;;;5.02;100.00;100838.44;2081179;28;30229;-75
2022/11/28 04:45:32;;;;;;;;;;;;;;;5.03;100.00;100837.56;2081158;28;36014;-75
2022/11/28 04:46:42;;;;;;;;;;;;;;;5.03;100.00;100838.44;2044748;28;30362;-75
2022/11/28 04:47:44;;;;;;;;;;;;;;;5.03;100.00;100837.56;2077022;28;41540;-75
2022/11/28 04:48:46;;;;;;;;;;;;;;;5.02;100.00;100841.94;2080915;28;33901;-75
2022/11/28 04:49:48;;;;;;;;;;;;;;;5.03;100.00;100845.53;2081002;28;35981;-75
2022/11/28 04:51:05;;;;;;;;;;;;;;;5.05;100.00;100847.28;2081259;28;30620;-75
2022/11/28 04:52:25;;;;;;;;;;;;;;;5.03;100.00;100840.22;2081195;28;37422;-75
2022/11/28 04:53:35;;;;;;;;;;;;;;;5.04;100.00;100850.78;2080506;28;42351;-75
2022/11/28 04:54:45;;;;;;;;;;;;;;;5.02;100.00;100846.38;2080412;28;19926;-75
2022/11/28 04:55:54;;;;;;;;;;;;;;;5.02;100.00;100844.59;2080551;28;35025;-75
2022/11/28 04:57:09;;;;;;;;;;;;;;;5.02;100.00;100844.59;2080877;28;33211;-75
2022/11/28 04:58:17;;;;;;;;;;;;;;;5.01;100.00;100844.59;2081491;28;19921;-75
2022/11/28 04:59:20;;;;;;;;;;;;;;;5.01;100.00;100839.31;2080787;28;37384;-75
2022/11/28 05:00:22;;;;;;;;;;;;;;;5.00;100.00;100838.44;2081544;28;29213;-75
2022/11/28 05:01:30;;;;;;;;;;;;;;;5.00;100.00;100843.72;2080724;28;35813;-75
2022/11/28 05:02:33;;;;;;;;;;;;;;;4.99;100.00;100841.97;2081196;28;19989;-75
2022/11/28 05:03:36;;;;;;;;;;;;;;;5.00;100.00;100842.84;2080569;28;30788;-75
2022/11/28 05:04:43;;;;;;;;;;;;;;;4.97;100.00;100844.63;2081474;28;31656;-75
2022/11/28 05:05:48;;;;;;;;;;;;;;;4.96;100.00;100832.25;2080403;28;36011;-74
2022/11/28 05:07:00;;;;;;;;;;;;;;;4.98;100.00;100849.03;2081067;28;32064;-76
2022/11/28 05:08:02;;;;;;;;;;;;;;;4.97;100.00;100841.97;2080888;28;37749;-76
2022/11/28 05:09:06;;;;;;;;;;;;;;;4.96;100.00;100832.25;2080567;28;33180;-76
2022/11/28 05:10:10;;;;;;;;;;;;;;;4.97;100.00;100839.31;2079751;28;40705;-75
2022/11/28 05:11:12;;;;;;;;;;;;;;;4.96;100.00;100832.25;2081751;28;19929;-75
2022/11/28 05:12:13;;;;;;;;;;;;;;;4.99;100.00;100839.34;2080776;28;34516;-75
2022/11/28 05:13:15;;;;;;;;;;;;;;;4.98;100.00;100845.50;2080560;28;39222;-75
2022/11/28 05:14:19;;;;;;;;;;;;;;;4.98;100.00;100841.06;2080730;28;35854;-75
2022/11/28 05:15:20;;;;;;;;;;;;;;;4.98;100.00;100841.06;2081503;28;35134;-75
2022/11/28 05:16:24;;;;;;;;;;;;;;;4.99;100.00;100839.34;2081411;28;19925;-75
2022/11/28 05:17:26;;;;;;;;;;;;;;;4.98;100.00;100838.41;2081278;28;37512;-75
2022/11/28 05:18:28;;;;;;;;;;;;;;;4.97;100.00;100839.31;2082219;28;31978;-75
2022/11/28 05:19:31;;;;;;;;;;;;;;;4.96;100.00;100845.50;2081548;28;20080;-75
2022/11/28 05:20:34;;;;;;;;;;;;;;;4.96;100.00;100840.19;2080573;28;35307;-75
2022/11/28 05:21:36;;;;;;;;;;;;;;;4.96;100.00;100839.31;2080961;28;30830;-75
2022/11/28 05:22:37;;;;;;;;;;;;;;;4.96;100.00;100832.25;2081193;28;30369;-75
2022/11/28 05:23:42;;;;;;;;;;;;;;;4.98;100.00;100840.19;2080547;28;39453;-75
2022/11/28 05:24:44;;;;;;;;;;;;;;;4.99;100.00;100839.34;2080547;28;32688;-75
2022/11/28 05:25:46;;;;;;;;;;;;;;;5.00;100.00;100837.56;2080764;28;32574;-75
2022/11/28 05:26:47;;;;;;;;;;;;;;;5.00;100.00;100837.56;2079587;28;38035;-75
2022/11/28 05:27:51;;;;;;;;;;;;;;;5.01;100.00;100844.59;2089986;28;20079;-75
2022/11/28 05:28:56;;;;;;;;;;;;;;;4.99;100.00;100836.69;2086981;28;36571;-75
2022/11/28 05:29:57;;;;;;;;;;;;;;;5.00;100.00;100842.84;2081009;28;34534;-75
2022/11/28 05:31:01;;;;;;;;;;;;;;;4.98;100.00;100851.69;2080824;28;27667;-75
2022/11/28 05:32:03;;;;;;;;;;;;;;;4.98;100.00;100854.34;2080921;28;34423;-74
2022/11/28 05:33:05;;;;;;;;;;;;;;;4.98;100.00;100849.03;2080603;28;31847;-74
2022/11/28 05:34:06;;;;;;;;;;;;;;;4.99;100.00;100847.28;2080990;28;31197;-75
2022/11/28 05:35:10;;;;;;;;;;;;;;;4.98;100.00;100849.03;2081225;28;19926;-75
2022/11/28 05:36:13;;;;;;;;;;;;;;;4.97;100.00;100847.28;2080934;28;31901;-75
2022/11/28 05:37:17;;;;;;;;;;;;;;;4.97;100.00;100841.97;2081206;28;20878;-75
2022/11/28 05:38:18;;;;;;;;;;;;;;;4.98;100.00;100842.84;2072194;28;29773;-75
2022/11/28 05:39:20;;;;;;;;;;;;;;;4.97;100.00;100844.63;2063467;28;33200;-75
2022/11/28 05:40:22;;;;;;;;;;;;;;;4.97;100.00;100844.63;2071672;28;34959;-75
2022/11/28 05:41:25;;;;;;;;;;;;;;;4.97;100.00;100841.97;2080177;28;36163;-75
2022/11/28 05:42:29;;;;;;;;;;;;;;;4.99;100.00;100836.69;2081123;28;19927;-75
2022/11/28 05:43:30;;;;;;;;;;;;;;;4.98;100.00;100846.38;2079472;28;38804;-75
2022/11/28 05:44:32;;;;;;;;;;;;;;;4.97;100.00;100843.72;2080768;28;35581;-75
2022/11/28 05:45:33;;;;;;;;;;;;;;;4.98;100.00;100841.06;2080476;28;31890;-75
2022/11/28 05:46:35;;;;;;;;;;;;;;;4.99;100.00;100839.34;2080687;28;36850;-75
2022/11/28 05:47:36;;;;;;;;;;;;;;;4.99;100.00;100841.97;2081070;28;19961;-75
2022/11/28 05:48:38;;;;;;;;;;;;;;;4.98;100.00;100846.38;2083293;28;33370;-75
2022/11/28 05:49:42;;;;;;;;;;;;;;;4.98;100.00;100845.50;2081153;28;19933;-75